createdAt,value
2022-10-31T00:01:24.348Z,0.22
2022-10-31T00:03:22.000Z,0.22
2022-10-31T00:05:20.212Z,0.22
2022-10-31T00:07:20.788Z,0.22
2022-10-31T00:09:20.578Z,0.22
2022-10-31T00:11:20.680Z,0.22
2022-10-31T00:15:20.616Z,0.22
2022-10-31T00:17:21.163Z,0.22
2022-10-31T00:19:21.597Z,0.22
2022-10-31T00:21:20.759Z,0.22
2022-10-31T00:23:20.939Z,0.22
2022-10-31T00:25:19.972Z,0.22
2022-10-31T00:27:19.904Z,0.22
2022-10-31T00:29:21.175Z,0.22
2022-10-31T00:31:20.961Z,0.22
2022-10-31T00:33:20.825Z,0.22
2022-10-31T00:35:20.890Z,0.22
2022-10-31T00:37:20.111Z,0.22
2022-10-31T00:39:20.002Z,0.22
2022-10-31T00:41:20.071Z,0.22
2022-10-31T00:43:21.257Z,0.22
2022-10-31T00:45:20.020Z,0.22
2022-10-31T00:47:20.339Z,0.22
2022-10-31T00:49:21.021Z,0.22
2022-10-31T00:51:20.396Z,0.22
2022-10-31T00:53:20.078Z,0.22
2022-10-31T00:55:20.721Z,0.22
2022-10-31T00:57:20.971Z,0.22
2022-10-31T00:59:22.492Z,0.22
2022-10-31T01:01:26.343Z,0.22
2022-10-31T01:03:22.658Z,0.22
2022-10-31T01:05:20.414Z,0.22
2022-10-31T01:07:20.000Z,0.22
2022-10-31T01:09:20.113Z,0.22
2022-10-31T01:11:20.564Z,0.22
2022-10-31T01:15:20.336Z,0.22
2022-10-31T01:17:20.141Z,0.22
2022-10-31T01:19:21.425Z,0.22
2022-10-31T01:21:20.821Z,0.22
2022-10-31T01:23:20.232Z,0.22
2022-10-31T01:25:20.589Z,0.22
2022-10-31T01:27:20.120Z,0.22
2022-10-31T01:29:22.003Z,0.22
2022-10-31T01:31:20.301Z,0.22
2022-10-31T01:33:21.071Z,0.22
2022-10-31T01:35:20.878Z,0.22
2022-10-31T01:37:20.380Z,0.22
2022-10-31T01:39:19.992Z,0.22
2022-10-31T01:41:20.562Z,0.22
2022-10-31T01:45:20.311Z,0.22
2022-10-31T01:47:20.867Z,0.22
2022-10-31T01:49:21.545Z,0.22
2022-10-31T01:51:20.804Z,0.22
2022-10-31T01:53:24.379Z,0.22
2022-10-31T01:55:20.562Z,0.22
2022-10-31T01:57:20.915Z,0.22
2022-10-31T01:59:21.095Z,0.22
2022-10-31T02:01:30.746Z,0.22
2022-10-31T02:03:22.451Z,0.22
2022-10-31T02:05:20.290Z,0.22
2022-10-31T02:07:20.748Z,0.22
2022-10-31T02:09:20.767Z,0.22
2022-10-31T02:11:20.346Z,0.22
2022-10-31T02:13:20.948Z,0.22
2022-10-31T02:15:21.061Z,0.22
2022-10-31T02:17:20.059Z,0.22
2022-10-31T02:19:20.824Z,0.22
2022-10-31T02:21:20.823Z,0.22
2022-10-31T02:23:20.219Z,0.22
2022-10-31T02:25:20.686Z,0.22
2022-10-31T02:27:20.554Z,0.22
2022-10-31T02:29:21.459Z,0.22
2022-10-31T02:31:20.991Z,0.22
2022-10-31T02:33:21.460Z,0.22
2022-10-31T02:35:20.860Z,0.22
2022-10-31T02:37:20.740Z,0.22
2022-10-31T02:39:20.997Z,0.22
2022-10-31T02:41:20.196Z,0.22
2022-10-31T02:43:21.074Z,0.22
2022-10-31T02:45:20.743Z,0.22
2022-10-31T02:47:20.465Z,0.22
2022-10-31T02:49:20.772Z,0.22
2022-10-31T02:51:20.531Z,0.22
2022-10-31T02:53:20.355Z,0.22
2022-10-31T02:55:20.606Z,0.22
2022-10-31T02:57:20.142Z,0.22
2022-10-31T02:59:21.576Z,0.22
2022-10-31T03:01:26.793Z,0.22
2022-10-31T03:03:21.802Z,0.22
2022-10-31T03:05:21.002Z,0.22
2022-10-31T03:07:20.920Z,0.22
2022-10-31T03:09:20.475Z,0.22
2022-10-31T03:11:20.256Z,0.22
2022-10-31T03:15:20.134Z,0.22
2022-10-31T03:17:20.413Z,0.22
2022-10-31T03:19:21.503Z,0.22
2022-10-31T03:21:21.035Z,0.22
2022-10-31T03:23:20.106Z,0.22
2022-10-31T03:25:20.422Z,0.22
2022-10-31T03:27:20.800Z,0.22
2022-10-31T03:29:21.004Z,0.22
2022-10-31T03:31:20.032Z,0.22
2022-10-31T03:33:21.170Z,0.22
2022-10-31T03:35:20.164Z,0.22
2022-10-31T03:37:20.789Z,0.22
2022-10-31T03:39:26.485Z,0.22
2022-10-31T03:41:20.618Z,0.22
2022-10-31T03:45:20.146Z,0.22
2022-10-31T03:47:20.960Z,0.22
2022-10-31T03:49:21.148Z,0.22
2022-10-31T03:51:20.938Z,0.22
2022-10-31T03:53:20.358Z,0.22
2022-10-31T03:55:20.317Z,0.22
2022-10-31T03:57:20.575Z,0.22
2022-10-31T03:59:21.169Z,0.22
2022-10-31T04:01:23.134Z,0.22
2022-10-31T04:03:22.524Z,0.22
2022-10-31T04:05:20.048Z,0.22
2022-10-31T04:07:20.639Z,0.22
2022-10-31T04:09:20.595Z,0.22
2022-10-31T04:11:28.283Z,0.22
2022-10-31T04:13:21.543Z,0.22
2022-10-31T04:15:20.175Z,0.22
2022-10-31T04:17:24.949Z,0.22
2022-10-31T04:19:20.905Z,0.22
2022-10-31T04:21:21.029Z,0.22
2022-10-31T04:23:26.019Z,0.22
2022-10-31T04:25:20.697Z,0.22
2022-10-31T04:27:20.511Z,0.22
2022-10-31T04:29:20.740Z,0.22
2022-10-31T04:31:20.456Z,0.22
2022-10-31T04:33:21.464Z,0.22
2022-10-31T04:35:21.055Z,0.22
2022-10-31T04:37:20.275Z,0.22
2022-10-31T04:39:22.795Z,0.22
2022-10-31T04:41:20.501Z,0.22
2022-10-31T04:43:21.605Z,0.22
2022-10-31T04:45:21.453Z,0.22
2022-10-31T04:47:20.187Z,0.22
2022-10-31T04:49:21.842Z,0.22
2022-10-31T04:51:20.519Z,0.22
2022-10-31T04:53:20.076Z,0.22
2022-10-31T04:55:20.756Z,0.22
2022-10-31T04:57:21.109Z,0.22
2022-10-31T04:59:21.608Z,0.22
2022-10-31T05:01:23.913Z,0.22
2022-10-31T05:03:27.157Z,0.22
2022-10-31T05:05:20.581Z,0.22
2022-10-31T05:07:20.428Z,0.22
2022-10-31T05:09:20.056Z,0.22
2022-10-31T05:11:26.809Z,0.22
2022-10-31T05:15:22.667Z,0.22
2022-10-31T05:17:20.645Z,0.22
2022-10-31T05:19:20.796Z,0.22
2022-10-31T05:21:20.433Z,0.22
2022-10-31T05:23:20.543Z,0.22
2022-10-31T05:25:20.596Z,0.22
2022-10-31T05:27:20.475Z,0.22
2022-10-31T05:29:20.815Z,0.22
2022-10-31T05:31:21.106Z,0.22
2022-10-31T05:33:21.486Z,0.22
2022-10-31T05:35:20.540Z,0.22
2022-10-31T05:37:20.677Z,0.22
2022-10-31T05:39:20.356Z,0.22
2022-10-31T05:41:27.146Z,0.22
2022-10-31T05:43:21.164Z,0.22
2022-10-31T05:45:20.980Z,0.22
2022-10-31T05:47:19.959Z,0.22
2022-10-31T05:49:25.333Z,0.22
2022-10-31T05:51:20.982Z,0.22
2022-10-31T05:53:20.813Z,0.22
2022-10-31T05:55:23.809Z,0.22
2022-10-31T05:57:20.393Z,0.22
2022-10-31T05:59:20.753Z,0.22
2022-10-31T06:01:23.538Z,0.22
2022-10-31T06:03:20.403Z,0.22
2022-10-31T06:05:21.528Z,0.22
2022-10-31T06:07:20.251Z,0.22
2022-10-31T06:09:21.468Z,0.22
2022-10-31T06:11:20.389Z,0.22
2022-10-31T06:13:21.035Z,0.22
2022-10-31T06:15:24.079Z,0.22
2022-10-31T06:17:20.790Z,0.22
2022-10-31T06:19:21.903Z,0.22
2022-10-31T06:21:23.761Z,0.22
2022-10-31T06:23:21.298Z,0.22
2022-10-31T06:25:20.109Z,0.22
2022-10-31T06:27:20.121Z,0.22
2022-10-31T06:29:26.730Z,0.22
2022-10-31T06:31:20.622Z,0.22
2022-10-31T06:33:20.890Z,0.22
2022-10-31T06:35:20.260Z,0.22
2022-10-31T06:37:21.217Z,0.22
2022-10-31T06:39:21.535Z,0.22
2022-10-31T06:41:20.604Z,0.22
2022-10-31T06:43:20.760Z,0.22
2022-10-31T06:45:26.756Z,0.22
2022-10-31T06:47:20.078Z,0.22
2022-10-31T06:49:36.269Z,0.22
2022-10-31T06:51:22.336Z,0.22
2022-10-31T06:53:21.602Z,0.22
2022-10-31T06:55:20.570Z,0.22
2022-10-31T06:57:20.304Z,0.22
2022-10-31T06:59:22.291Z,0.22
2022-10-31T07:01:24.216Z,0.22
2022-10-31T07:03:21.393Z,0.22
2022-10-31T07:05:20.483Z,0.22
2022-10-31T07:07:25.768Z,0.22
2022-10-31T07:09:21.515Z,0.22
2022-10-31T07:11:25.645Z,0.22
2022-10-31T07:13:20.946Z,0.22
2022-10-31T07:15:20.739Z,0.22
2022-10-31T07:17:20.095Z,0.22
2022-10-31T07:19:20.921Z,0.22
2022-10-31T07:21:20.088Z,0.22
2022-10-31T07:23:25.108Z,0.22
2022-10-31T07:25:19.946Z,0.22
2022-10-31T07:27:20.412Z,0.22
2022-10-31T07:29:21.124Z,0.22
2022-10-31T07:31:20.443Z,0.22
2022-10-31T07:33:20.513Z,0.22
2022-10-31T07:35:21.507Z,0.22
2022-10-31T07:37:20.255Z,0.22
2022-10-31T07:39:21.496Z,0.22
2022-10-31T07:41:20.275Z,0.22
2022-10-31T07:43:25.932Z,0.22
2022-10-31T07:45:20.880Z,0.22
2022-10-31T07:47:20.514Z,0.22
2022-10-31T07:49:20.934Z,0.22
2022-10-31T07:51:20.776Z,0.22
2022-10-31T07:53:20.948Z,0.22
2022-10-31T07:55:20.863Z,0.22
2022-10-31T07:57:24.112Z,0.22
2022-10-31T07:59:21.255Z,0.22
2022-10-31T08:01:27.071Z,0.22
2022-10-31T08:03:21.052Z,0.22
2022-10-31T08:05:24.132Z,0.22
2022-10-31T08:07:20.520Z,0.22
2022-10-31T08:09:23.599Z,0.22
2022-10-31T08:11:21.057Z,0.22
2022-10-31T08:13:20.442Z,0.22
2022-10-31T08:15:20.527Z,0.22
2022-10-31T08:17:20.843Z,0.22
2022-10-31T08:19:21.039Z,0.22
2022-10-31T08:21:21.030Z,0.22
2022-10-31T08:23:26.057Z,0.22
2022-10-31T08:25:20.327Z,0.22
2022-10-31T08:27:20.593Z,0.22
2022-10-31T08:29:21.229Z,0.22
2022-10-31T08:31:20.695Z,0.22
2022-10-31T08:33:20.438Z,0.22
2022-10-31T08:35:20.846Z,0.22
2022-10-31T08:37:20.357Z,0.22
2022-10-31T08:39:24.816Z,0.22
2022-10-31T08:41:20.737Z,0.22
2022-10-31T08:43:21.020Z,0.22
2022-10-31T08:45:20.389Z,0.22
2022-10-31T08:47:20.313Z,0.22
2022-10-31T08:49:21.421Z,0.22
2022-10-31T08:51:20.874Z,0.22
2022-10-31T08:53:51.231Z,0.22
2022-10-31T08:55:20.205Z,0.22
2022-10-31T08:57:20.920Z,0.22
2022-10-31T08:59:25.390Z,0.22
2022-10-31T09:01:23.583Z,0.22
2022-10-31T09:03:21.461Z,0.22
2022-10-31T09:05:20.459Z,0.22
2022-10-31T09:07:53.744Z,0.22
2022-10-31T09:09:24.691Z,0.22
2022-10-31T09:11:20.859Z,0.22
2022-10-31T09:13:20.482Z,0.22
2022-10-31T09:15:20.922Z,0.22
2022-10-31T09:17:19.997Z,0.22
2022-10-31T09:19:22.981Z,0.22
2022-10-31T09:21:20.263Z,0.22
2022-10-31T09:23:20.592Z,0.22
2022-10-31T09:25:20.342Z,0.22
2022-10-31T09:27:20.591Z,0.22
2022-10-31T09:29:21.033Z,0.11
2022-10-31T09:31:20.232Z,0.11
2022-10-31T09:33:20.968Z,0.11
2022-10-31T09:35:24.704Z,0.29
2022-10-31T09:37:20.539Z,0.29
2022-10-31T09:39:20.956Z,0.29
2022-10-31T09:41:20.589Z,0.29
2022-10-31T09:43:20.146Z,0.29
2022-10-31T09:45:20.491Z,0.29
2022-10-31T09:47:20.966Z,0.29
2022-10-31T09:49:21.730Z,0.29
2022-10-31T09:51:20.528Z,0.29
2022-10-31T09:53:21.035Z,0.29
2022-10-31T09:55:20.263Z,0.29
2022-10-31T09:57:20.423Z,0.29
2022-10-31T09:59:24.173Z,0.29
2022-10-31T10:01:23.815Z,0.29
2022-10-31T10:03:21.635Z,0.29
2022-10-31T10:05:28.043Z,0.29
2022-10-31T10:07:20.559Z,0.29
2022-10-31T10:11:20.170Z,0.29
2022-10-31T10:13:21.437Z,0.29
2022-10-31T10:15:20.841Z,0.29
2022-10-31T10:17:20.096Z,0.29
2022-10-31T10:19:20.276Z,0.29
2022-10-31T10:21:21.174Z,0.29
2022-10-31T10:23:21.156Z,0.29
2022-10-31T10:25:19.912Z,0.29
2022-10-31T10:27:22.436Z,0.29
2022-10-31T10:29:20.901Z,0.29
2022-10-31T10:31:20.681Z,0.29
2022-10-31T10:33:26.098Z,0.29
2022-10-31T10:35:20.316Z,0.29
2022-10-31T10:37:20.676Z,0.29
2022-10-31T10:39:20.737Z,0.29
2022-10-31T10:41:20.742Z,0.15
2022-10-31T10:43:20.257Z,0.17
2022-10-31T10:45:20.169Z,0.17
2022-10-31T10:47:20.651Z,0.38
2022-10-31T10:49:20.860Z,0.4
2022-10-31T10:52:07.476Z,0.4
2022-10-31T10:53:58.607Z,0.51
2022-10-31T10:55:26.563Z,0.51
2022-10-31T10:57:20.803Z,0.51
2022-10-31T10:59:21.079Z,0.58
2022-10-31T11:01:24.335Z,0.59
2022-10-31T11:03:23.628Z,0.59
2022-10-31T11:05:20.814Z,0.64
2022-10-31T11:07:20.593Z,0.65
2022-10-31T11:09:24.015Z,0.65
2022-10-31T11:11:20.728Z,0.7
2022-10-31T11:13:21.533Z,0.7
2022-10-31T11:15:20.248Z,0.7
2022-10-31T11:17:26.225Z,0.74
2022-10-31T11:19:21.653Z,0.75
2022-10-31T11:21:26.655Z,0.75
2022-10-31T11:23:20.591Z,0.78
2022-10-31T11:25:20.188Z,0.79
2022-10-31T11:27:20.223Z,0.79
2022-10-31T11:29:21.134Z,0.82
2022-10-31T11:31:21.021Z,0.82
2022-10-31T11:33:21.138Z,0.82
2022-10-31T11:35:20.749Z,0.86
2022-10-31T11:37:20.571Z,0.86
2022-10-31T11:39:20.777Z,0.86
2022-10-31T11:41:20.374Z,0.9
2022-10-31T11:43:27.565Z,0.9
2022-10-31T11:45:20.171Z,0.9
2022-10-31T11:47:20.927Z,0.93
2022-10-31T11:49:20.674Z,0.93
2022-10-31T11:51:20.114Z,0.93
2022-10-31T11:53:20.238Z,0.96
2022-10-31T11:55:22.349Z,0.96
2022-10-31T11:57:20.509Z,0.96
2022-10-31T11:59:20.754Z,0.98
2022-10-31T12:01:23.196Z,0.99
2022-10-31T12:03:21.731Z,0.99
2022-10-31T12:05:20.957Z,1.01
2022-10-31T12:07:20.539Z,1
2022-10-31T12:09:23.835Z,1
2022-10-31T12:11:21.315Z,1.03
2022-10-31T12:13:21.053Z,1.03
2022-10-31T12:15:23.472Z,1.03
2022-10-31T12:17:20.507Z,1.05
2022-10-31T12:19:20.744Z,1.05
2022-10-31T12:21:20.648Z,1.05
2022-10-31T12:23:22.039Z,1.08
2022-10-31T12:25:21.087Z,1.08
2022-10-31T12:27:20.525Z,1.08
2022-10-31T12:29:26.284Z,1.08
2022-10-31T12:31:20.740Z,1.09
2022-10-31T12:33:20.781Z,1.09
2022-10-31T12:35:23.230Z,1.1
2022-10-31T12:37:23.319Z,1.1
2022-10-31T12:39:21.467Z,1.1
2022-10-31T12:41:20.900Z,1.11
2022-10-31T12:43:20.693Z,1.12
2022-10-31T12:45:20.638Z,1.12
2022-10-31T12:47:20.166Z,1.12
2022-10-31T12:49:20.989Z,1.12
2022-10-31T12:51:20.000Z,1.12
2022-10-31T12:53:21.461Z,1.12
2022-10-31T12:55:21.972Z,1.12
2022-10-31T12:57:20.874Z,1.12
2022-10-31T12:59:21.314Z,1.13
2022-10-31T13:01:27.750Z,1.14
2022-10-31T13:03:21.386Z,1.14
2022-10-31T13:05:20.861Z,1.15
2022-10-31T13:07:20.116Z,1.15
2022-10-31T13:09:21.222Z,1.15
2022-10-31T13:11:20.815Z,1.16
2022-10-31T13:13:23.273Z,1.16
2022-10-31T13:15:20.743Z,1.16
2022-10-31T13:17:20.542Z,1.17
2022-10-31T13:19:20.648Z,1.17
2022-10-31T13:21:28.545Z,1.17
2022-10-31T13:23:51.356Z,1.18
2022-10-31T13:25:20.305Z,1.18
2022-10-31T13:27:22.246Z,1.18
2022-10-31T13:29:20.934Z,1.19
2022-10-31T13:31:21.060Z,1.19
2022-10-31T13:33:20.483Z,1.19
2022-10-31T13:35:20.460Z,1.19
2022-10-31T13:37:20.217Z,1.19
2022-10-31T13:39:20.893Z,1.19
2022-10-31T13:41:20.391Z,1.2
2022-10-31T13:43:21.084Z,1.2
2022-10-31T13:45:23.579Z,1.2
2022-10-31T13:47:20.145Z,1.21
2022-10-31T13:49:21.018Z,1.21
2022-10-31T13:51:26.620Z,1.21
2022-10-31T13:53:20.762Z,1.22
2022-10-31T13:55:20.092Z,1.22
2022-10-31T13:57:20.182Z,1.22
2022-10-31T13:59:20.826Z,1.22
2022-10-31T14:01:24.222Z,1.22
2022-10-31T14:03:36.374Z,1.22
2022-10-31T14:05:37.634Z,1.23
2022-10-31T14:07:20.307Z,1.23
2022-10-31T14:09:20.641Z,1.23
2022-10-31T14:11:21.265Z,1.24
2022-10-31T14:13:20.485Z,1.23
2022-10-31T14:15:20.756Z,1.23
2022-10-31T14:17:22.751Z,1.24
2022-10-31T14:19:20.925Z,1.24
2022-10-31T14:21:20.291Z,1.24
2022-10-31T14:23:25.171Z,1.26
2022-10-31T14:25:20.874Z,1.26
2022-10-31T14:27:20.698Z,1.26
2022-10-31T14:29:21.468Z,1.27
2022-10-31T14:31:20.295Z,1.26
2022-10-31T14:33:20.391Z,1.26
2022-10-31T14:35:21.489Z,1.27
2022-10-31T14:37:27.281Z,1.27
2022-10-31T14:39:21.537Z,1.27
2022-10-31T14:41:20.800Z,1.27
2022-10-31T14:43:20.761Z,1.27
2022-10-31T14:45:20.390Z,1.27
2022-10-31T14:47:21.037Z,1.27
2022-10-31T14:49:26.823Z,1.27
2022-10-31T14:51:20.772Z,1.27
2022-10-31T14:53:21.246Z,1.27
2022-10-31T14:55:20.422Z,1.27
2022-10-31T14:57:25.831Z,1.27
2022-10-31T14:59:20.917Z,1.27
2022-10-31T15:01:24.048Z,1.27
2022-10-31T15:03:21.495Z,1.27
2022-10-31T15:05:42.815Z,1.27
2022-10-31T15:07:24.485Z,1.27
2022-10-31T15:09:20.303Z,1.27
2022-10-31T15:11:20.694Z,1.27
2022-10-31T15:13:21.013Z,1.27
2022-10-31T15:15:21.070Z,1.27
2022-10-31T15:17:20.325Z,1.27
2022-10-31T15:19:21.177Z,1.27
2022-10-31T15:21:23.847Z,1.27
2022-10-31T15:23:21.019Z,1.27
2022-10-31T15:25:20.646Z,1.27
2022-10-31T15:27:27.328Z,1.27
2022-10-31T15:29:20.776Z,1.27
2022-10-31T15:31:20.902Z,1.27
2022-10-31T15:33:37.906Z,1.27
2022-10-31T15:35:20.532Z,1.27
2022-10-31T15:37:25.508Z,1.27
2022-10-31T15:39:20.986Z,1.27
2022-10-31T15:41:20.665Z,1.27
2022-10-31T15:43:21.134Z,1.27
2022-10-31T15:45:20.184Z,1.27
2022-10-31T15:47:27.247Z,1.27
2022-10-31T15:49:21.527Z,1.27
2022-10-31T15:51:20.416Z,1.27
2022-10-31T15:53:22.880Z,1.27
2022-10-31T15:55:20.334Z,1.27
2022-10-31T15:57:20.057Z,1.27
2022-10-31T15:59:20.771Z,1.27
2022-10-31T16:01:25.655Z,1.27
2022-10-31T16:03:22.985Z,1.27
2022-10-31T16:05:21.021Z,1.27
2022-10-31T16:07:23.579Z,1.27
2022-10-31T16:09:20.436Z,1.27
2022-10-31T16:11:20.455Z,1.27
2022-10-31T16:13:20.944Z,1.27
2022-10-31T16:15:22.235Z,1.27
2022-10-31T16:17:55.728Z,1.27
2022-10-31T16:19:20.785Z,1.27
2022-10-31T16:21:20.322Z,1.27
2022-10-31T16:23:21.327Z,1.27
2022-10-31T16:25:24.952Z,1.27
2022-10-31T16:27:20.403Z,1.27
2022-10-31T16:29:38.727Z,1.27
2022-10-31T16:31:22.536Z,1.27
2022-10-31T16:33:21.482Z,1.27
2022-10-31T16:35:23.439Z,1.27
2022-10-31T16:37:43.369Z,1.27
2022-10-31T16:39:20.868Z,1.27
2022-10-31T16:41:20.868Z,1.27
2022-10-31T16:43:21.512Z,1.27
2022-10-31T16:45:20.569Z,1.27
2022-10-31T16:47:22.200Z,1.27
2022-10-31T16:49:20.863Z,1.27
2022-10-31T16:51:20.049Z,1.27
2022-10-31T16:53:54.039Z,1.27
2022-10-31T16:55:20.374Z,1.27
2022-10-31T16:57:20.452Z,1.27
2022-10-31T16:59:27.461Z,1.27
2022-10-31T17:01:23.907Z,0.24
2022-10-31T17:03:21.619Z,0.24
2022-10-31T17:05:26.172Z,0.24
2022-10-31T17:07:20.355Z,0.48
2022-10-31T17:09:21.120Z,0.48
2022-10-31T17:11:20.036Z,0.48
2022-10-31T17:13:20.424Z,0.61
2022-10-31T17:15:20.693Z,0.61
2022-10-31T17:17:20.678Z,0.61
2022-10-31T17:19:24.244Z,0.61
2022-10-31T17:21:20.766Z,0.61
2022-10-31T17:23:20.758Z,0.61
2022-10-31T17:25:20.782Z,0.61
2022-10-31T17:27:20.856Z,0.61
2022-10-31T17:29:20.852Z,0.61
2022-10-31T17:31:20.944Z,0.61
2022-10-31T17:33:20.786Z,0.61
2022-10-31T17:35:22.393Z,0.61
2022-10-31T17:37:20.090Z,0.61
2022-10-31T17:39:20.638Z,0.61
2022-10-31T17:41:23.004Z,0.61
2022-10-31T17:43:21.006Z,0.61
2022-10-31T17:45:20.289Z,0.61
2022-10-31T17:47:20.352Z,0.61
2022-10-31T17:49:20.163Z,0.61
2022-10-31T17:51:20.746Z,0.61
2022-10-31T17:53:20.786Z,0.61
2022-10-31T17:55:20.493Z,0.61
2022-10-31T17:57:20.403Z,0.61
2022-10-31T17:59:20.660Z,0.61
2022-10-31T18:01:25.801Z,0.61
2022-10-31T18:03:22.627Z,0.61
2022-10-31T18:05:20.534Z,0.61
2022-10-31T18:07:21.156Z,0.61
2022-10-31T18:09:23.341Z,0.61
2022-10-31T18:11:20.344Z,0.61
2022-10-31T18:13:21.526Z,0.61
2022-10-31T18:15:22.612Z,0.61
2022-10-31T18:17:21.221Z,0.61
2022-10-31T18:19:21.634Z,0.24
2022-10-31T18:21:20.287Z,0.25
2022-10-31T18:23:20.552Z,0.25
2022-10-31T18:25:24.828Z,0.25
2022-10-31T18:27:20.089Z,0.25
2022-10-31T18:29:21.025Z,0.25
2022-10-31T18:31:20.314Z,0.25
2022-10-31T18:33:27.868Z,0.25
2022-10-31T18:35:20.776Z,0.25
2022-10-31T18:37:20.106Z,0.25
2022-10-31T18:39:22.222Z,0.25
2022-10-31T18:41:20.288Z,0.25
2022-10-31T18:43:20.604Z,0.25
2022-10-31T18:45:57.810Z,0.25
2022-10-31T18:47:20.315Z,0.25
2022-10-31T18:49:20.898Z,0.25
2022-10-31T18:51:20.848Z,0.25
2022-10-31T18:53:20.451Z,0.25
2022-10-31T18:55:20.992Z,0.25
2022-10-31T18:57:20.934Z,0.25
2022-10-31T18:59:20.711Z,0.25
2022-10-31T19:01:23.523Z,0.25
2022-10-31T19:03:25.811Z,0.25
2022-10-31T19:05:20.997Z,0.25
2022-10-31T19:07:20.416Z,0.25
2022-10-31T19:09:21.080Z,0.25
2022-10-31T19:11:20.173Z,0.25
2022-10-31T19:13:21.177Z,0.25
2022-10-31T19:15:20.374Z,0.25
2022-10-31T19:17:25.054Z,0.25
2022-10-31T19:19:20.069Z,0.25
2022-10-31T19:21:20.560Z,0.25
2022-10-31T19:23:21.157Z,0.25
2022-10-31T19:25:22.464Z,0.25
2022-10-31T19:27:20.098Z,0.25
2022-10-31T19:29:21.252Z,0.25
2022-10-31T19:31:20.154Z,0.25
2022-10-31T19:33:20.344Z,0.25
2022-10-31T19:35:20.889Z,0.25
2022-10-31T19:37:20.644Z,0.25
2022-10-31T19:39:21.728Z,0.25
2022-10-31T19:41:20.685Z,0.25
2022-10-31T19:43:20.336Z,0.25
2022-10-31T19:45:23.714Z,0.25
2022-10-31T19:47:50.205Z,0.25
2022-10-31T19:49:20.463Z,0.25
2022-10-31T19:51:21.246Z,0.25
2022-10-31T19:53:20.489Z,0.25
2022-10-31T19:55:20.070Z,0.25
2022-10-31T19:57:35.891Z,0.25
2022-10-31T19:59:33.908Z,0.25
2022-10-31T20:01:23.661Z,0.25
2022-10-31T20:03:22.545Z,0.25
2022-10-31T20:05:20.092Z,0.25
2022-10-31T20:07:20.838Z,0.25
2022-10-31T20:09:24.812Z,0.25
2022-10-31T20:11:20.550Z,0.25
2022-10-31T20:13:20.043Z,0.25
2022-10-31T20:15:20.429Z,0.25
2022-10-31T20:17:20.758Z,0.25
2022-10-31T20:19:21.925Z,0.25
2022-10-31T20:21:24.676Z,0.25
2022-10-31T20:23:21.284Z,0.25
2022-10-31T20:25:20.955Z,0.25
2022-10-31T20:27:19.921Z,0.25
2022-10-31T20:29:28.099Z,0.25
2022-10-31T20:31:21.004Z,0.25
2022-10-31T20:33:24.206Z,0.25
2022-10-31T20:35:20.096Z,0.25
2022-10-31T20:37:20.357Z,0.25
2022-10-31T20:39:21.741Z,0.25
2022-10-31T20:41:20.851Z,0.25
2022-10-31T20:43:20.445Z,0.25
2022-10-31T20:45:21.070Z,0.25
2022-10-31T20:47:23.319Z,0.25
2022-10-31T20:49:20.691Z,0.25
2022-10-31T20:51:20.663Z,0.25
2022-10-31T20:53:20.746Z,0.25
2022-10-31T20:55:20.286Z,0.25
2022-10-31T20:57:26.382Z,0.25
2022-10-31T20:59:20.722Z,0.25
2022-10-31T21:01:24.335Z,0.25
2022-10-31T21:03:21.899Z,0.25
2022-10-31T21:05:20.682Z,0.25
2022-10-31T21:07:23.499Z,0.25
2022-10-31T21:09:20.542Z,0.25
2022-10-31T21:11:20.234Z,0.25
2022-10-31T21:13:21.217Z,0.25
2022-10-31T21:15:20.636Z,0.25
2022-10-31T21:17:20.377Z,0.25
2022-10-31T21:19:20.769Z,0.25
2022-10-31T21:21:20.630Z,0.25
2022-10-31T21:23:20.888Z,0.25
2022-10-31T21:25:20.202Z,0.25
2022-10-31T21:27:23.933Z,0.25
2022-10-31T21:29:21.788Z,0.25
2022-10-31T21:31:20.203Z,0.25
2022-10-31T21:33:20.833Z,0.25
2022-10-31T21:35:20.930Z,0.25
2022-10-31T21:37:20.452Z,0.25
2022-10-31T21:39:21.139Z,0.25
2022-10-31T21:41:20.357Z,0.25
2022-10-31T21:43:27.869Z,0.25
2022-10-31T21:45:20.645Z,0.25
2022-10-31T21:47:20.785Z,0.25
2022-10-31T21:49:20.398Z,0.25
2022-10-31T21:51:19.974Z,0.25
2022-10-31T21:53:20.392Z,0.25
2022-10-31T21:55:20.797Z,0.25
2022-10-31T21:59:23.758Z,0.25
2022-10-31T22:01:25.663Z,0.25
2022-10-31T22:03:20.651Z,0.25
2022-10-31T22:05:20.633Z,0.25
2022-10-31T22:07:20.124Z,0.25
2022-10-31T22:09:21.563Z,0.25
2022-10-31T22:11:20.093Z,0.25
2022-10-31T22:13:20.403Z,0.25
2022-10-31T22:15:21.166Z,0.25
2022-10-31T22:17:20.588Z,0.25
2022-10-31T22:19:20.606Z,0.25
2022-10-31T22:21:20.482Z,0.25
2022-10-31T22:23:20.751Z,0.25
2022-10-31T22:25:24.021Z,0.25
2022-10-31T22:27:20.531Z,0.25
2022-10-31T22:29:21.541Z,0.25
2022-10-31T22:31:20.669Z,0.25
2022-10-31T22:33:21.275Z,0.25
2022-10-31T22:35:20.325Z,0.25
2022-10-31T22:37:21.150Z,0.25
2022-10-31T22:39:20.571Z,0.25
2022-10-31T22:41:20.191Z,0.25
2022-10-31T22:43:21.183Z,0.25
2022-10-31T22:45:20.248Z,0.25
2022-10-31T22:47:20.596Z,0.25
2022-10-31T22:49:21.296Z,0.25
2022-10-31T22:51:20.114Z,0.25
2022-10-31T22:53:20.822Z,0.25
2022-10-31T22:55:21.955Z,0.25
2022-10-31T22:57:20.031Z,0.25
2022-10-31T22:59:21.308Z,0.25
2022-10-31T23:01:32.534Z,0.25
2022-10-31T23:03:21.702Z,0.25
2022-10-31T23:05:20.832Z,0.25
2022-10-31T23:07:28.282Z,0.25
2022-10-31T23:09:20.940Z,0.25
2022-10-31T23:11:20.444Z,0.25
2022-10-31T23:13:20.175Z,0.25
2022-10-31T23:15:20.045Z,0.25
2022-10-31T23:17:20.663Z,0.25
2022-10-31T23:19:46.774Z,0.25
2022-10-31T23:21:20.971Z,0.25
2022-10-31T23:23:20.687Z,0.25
2022-10-31T23:25:20.945Z,0.25
2022-10-31T23:27:20.926Z,0.25
2022-10-31T23:29:20.061Z,0.25
2022-10-31T23:31:20.521Z,0.25
2022-10-31T23:33:20.588Z,0.25
2022-10-31T23:35:20.605Z,0.25
2022-10-31T23:37:20.242Z,0.25
2022-10-31T23:39:25.019Z,0.25
2022-10-31T23:41:20.336Z,0.25
2022-10-31T23:43:20.044Z,0.25
2022-10-31T23:45:20.507Z,0.25
2022-10-31T23:47:20.804Z,0.25
2022-10-31T23:49:21.405Z,0.25
2022-10-31T23:51:20.542Z,0.25
2022-10-31T23:53:20.771Z,0.25
2022-10-31T23:55:20.437Z,0.25
2022-10-31T23:57:20.218Z,0.25
2022-10-31T23:59:21.056Z,0.25
